createdAt,value
2022-10-17T00:00:32.478Z,3.00
2022-10-17T00:02:58.979Z,3.67
2022-10-17T00:05:25.324Z,3.75
2022-10-17T00:07:52.757Z,3.63
2022-10-17T00:10:20.614Z,3.58
2022-10-17T00:12:47.184Z,2.83
2022-10-17T00:15:18.844Z,3.08
2022-10-17T00:17:45.611Z,3.78
2022-10-17T00:20:12.858Z,2.90
2022-10-17T00:22:39.678Z,3.38
2022-10-17T00:25:06.392Z,3.30
2022-10-17T00:27:40.980Z,3.08
2022-10-17T00:30:11.679Z,2.97
2022-10-17T00:32:38.139Z,2.75
2022-10-17T00:35:05.000Z,2.90
2022-10-17T00:37:32.243Z,2.97
2022-10-17T00:39:58.947Z,2.83
2022-10-17T00:42:27.134Z,3.03
2022-10-17T00:45:11.296Z,2.85
2022-10-17T00:47:37.986Z,2.83
2022-10-17T00:50:07.396Z,2.60
2022-10-17T00:52:34.286Z,2.80
2022-10-17T00:55:11.307Z,2.65
2022-10-17T00:57:39.380Z,3.13
2022-10-17T01:00:09.923Z,2.97
2022-10-17T01:02:37.645Z,3.25
2022-10-17T01:05:05.041Z,2.92
2022-10-17T01:07:37.164Z,2.75
2022-10-17T01:10:06.062Z,2.65
2022-10-17T01:12:51.874Z,2.85
2022-10-17T01:15:32.851Z,2.92
2022-10-17T01:18:24.127Z,2.60
2022-10-17T01:21:17.141Z,2.88
2022-10-17T01:24:16.383Z,2.60
2022-10-17T01:27:02.687Z,2.33
2022-10-17T01:29:55.070Z,3.15
2022-10-17T01:32:25.332Z,2.42
2022-10-17T01:34:59.252Z,2.63
2022-10-17T01:37:47.197Z,2.55
2022-10-17T01:40:39.376Z,3.00
2022-10-17T01:43:18.056Z,2.63
2022-10-17T01:45:53.480Z,2.85
2022-10-17T01:48:24.313Z,2.45
2022-10-17T01:51:00.740Z,2.35
2022-10-17T01:53:33.610Z,2.40
2022-10-17T01:56:04.640Z,2.25
2022-10-17T01:58:46.183Z,2.30
2022-10-17T02:01:13.306Z,2.78
2022-10-17T02:03:43.659Z,2.65
2022-10-17T02:06:10.026Z,2.75
2022-10-17T02:08:45.633Z,2.60
2022-10-17T02:11:17.582Z,2.47
2022-10-17T02:14:20.889Z,2.50
2022-10-17T02:17:17.893Z,2.33
2022-10-17T02:20:15.621Z,2.70
2022-10-17T02:23:02.838Z,2.83
2022-10-17T02:25:45.775Z,2.42
2022-10-17T02:28:39.298Z,2.10
2022-10-17T02:31:26.323Z,2.38
2022-10-17T02:34:01.740Z,2.10
2022-10-17T02:36:35.004Z,2.22
2022-10-17T02:39:03.015Z,2.72
2022-10-17T02:41:31.416Z,2.53
2022-10-17T02:44:00.199Z,2.25
2022-10-17T02:46:30.530Z,2.50
2022-10-17T02:49:05.359Z,2.30
2022-10-17T02:51:45.197Z,2.22
2022-10-17T02:54:26.983Z,2.63
2022-10-17T02:56:59.298Z,2.38
2022-10-17T02:59:28.582Z,2.72
2022-10-17T03:01:55.434Z,2.60
2022-10-17T03:04:21.964Z,2.53
2022-10-17T03:06:49.058Z,2.38
2022-10-17T03:09:16.022Z,2.38
2022-10-17T03:11:42.590Z,2.38
2022-10-17T03:14:09.001Z,2.17
2022-10-17T03:16:36.383Z,2.45
2022-10-17T03:19:03.900Z,2.40
2022-10-17T03:21:31.290Z,2.30
2022-10-17T03:23:57.775Z,2.17
2022-10-17T03:26:24.474Z,2.22
2022-10-17T03:28:53.662Z,2.25
2022-10-17T03:31:22.702Z,2.00
2022-10-17T03:33:50.143Z,2.47
2022-10-17T03:36:18.604Z,2.10
2022-10-17T03:38:46.711Z,1.85
2022-10-17T03:41:13.219Z,2.10
2022-10-17T03:43:40.192Z,2.28
2022-10-17T03:46:07.675Z,2.13
2022-10-17T03:48:34.697Z,2.35
2022-10-17T03:51:05.193Z,1.88
2022-10-17T03:53:34.319Z,2.00
2022-10-17T03:56:18.206Z,1.88
2022-10-17T03:58:51.130Z,2.00
2022-10-17T04:01:19.529Z,2.03
2022-10-17T04:03:54.276Z,2.00
2022-10-17T04:06:21.527Z,2.08
2022-10-17T04:08:48.376Z,2.28
2022-10-17T04:11:21.833Z,2.03
2022-10-17T04:13:54.514Z,2.30
2022-10-17T04:16:22.933Z,2.05
2022-10-17T04:19:04.826Z,2.40
2022-10-17T04:21:37.785Z,2.08
2022-10-17T04:24:06.911Z,2.28
2022-10-17T04:26:43.742Z,2.45
2022-10-17T04:29:10.829Z,2.38
2022-10-17T04:31:37.984Z,2.35
2022-10-17T04:34:15.288Z,1.88
2022-10-17T04:36:42.137Z,2.08
2022-10-17T04:39:08.874Z,2.67
2022-10-17T04:41:35.975Z,2.00
2022-10-17T04:44:02.687Z,2.33
2022-10-17T04:46:34.148Z,2.55
2022-10-17T04:49:00.588Z,2.03
2022-10-17T04:51:27.604Z,1.80
2022-10-17T04:54:23.113Z,2.08
2022-10-17T04:56:56.495Z,2.03
2022-10-17T04:59:22.972Z,2.25
2022-10-17T05:01:56.520Z,2.17
2022-10-17T05:04:24.897Z,2.47
2022-10-17T05:06:52.694Z,2.03
2022-10-17T05:09:39.016Z,2.83
2022-10-17T05:12:08.104Z,2.45
2022-10-17T05:14:38.238Z,2.28
2022-10-17T05:17:04.898Z,2.20
2022-10-17T05:19:31.374Z,2.13
2022-10-17T05:21:58.475Z,2.35
2022-10-17T05:24:25.011Z,2.17
2022-10-17T05:26:52.026Z,2.65
2022-10-17T05:29:19.057Z,2.20
2022-10-17T05:31:50.897Z,2.15
2022-10-17T05:34:17.833Z,2.22
2022-10-17T05:36:44.726Z,2.20
2022-10-17T05:39:14.771Z,2.53
2022-10-17T05:41:41.631Z,2.58
2022-10-17T05:44:08.147Z,2.65
2022-10-17T05:46:40.079Z,2.25
2022-10-17T05:49:15.014Z,2.35
2022-10-17T05:51:53.484Z,2.50
2022-10-17T05:54:20.508Z,2.47
2022-10-17T05:56:52.205Z,2.42
2022-10-17T05:59:20.612Z,2.45
2022-10-17T06:01:54.544Z,2.15
2022-10-17T06:04:21.060Z,2.70
2022-10-17T06:06:47.626Z,2.22
2022-10-17T06:09:14.090Z,2.80
2022-10-17T06:11:44.288Z,2.35
2022-10-17T06:14:11.848Z,2.40
2022-10-17T06:16:40.046Z,2.50
2022-10-17T06:19:06.710Z,2.53
2022-10-17T06:21:36.411Z,2.47
2022-10-17T06:24:08.590Z,2.85
2022-10-17T06:26:36.980Z,2.40
2022-10-17T06:29:06.260Z,2.42
2022-10-17T06:31:36.355Z,2.80
2022-10-17T06:34:02.796Z,3.17
2022-10-17T06:36:29.779Z,2.60
2022-10-17T06:38:56.151Z,2.50
2022-10-17T06:41:29.854Z,2.35
2022-10-17T06:44:09.512Z,2.60
2022-10-17T06:46:59.013Z,2.47
2022-10-17T06:49:26.748Z,3.08
2022-10-17T06:52:19.283Z,2.55
2022-10-17T06:55:08.980Z,2.25
2022-10-17T06:57:51.678Z,2.40
2022-10-17T07:00:37.205Z,2.78
2022-10-17T07:03:03.988Z,2.83
2022-10-17T07:05:30.488Z,2.90
2022-10-17T07:07:56.880Z,2.95
2022-10-17T07:10:23.276Z,2.70
2022-10-17T07:12:49.842Z,2.70
2022-10-17T07:15:16.346Z,3.00
2022-10-17T07:17:42.931Z,3.05
2022-10-17T07:20:09.832Z,3.00
2022-10-17T07:22:37.851Z,2.95
2022-10-17T07:25:04.646Z,2.72
2022-10-17T07:27:38.379Z,2.70
2022-10-17T07:30:05.435Z,2.38
2022-10-17T07:32:55.032Z,2.70
2022-10-17T07:35:21.831Z,2.70
2022-10-17T07:37:48.490Z,2.97
2022-10-17T07:40:17.700Z,2.40
2022-10-17T07:42:44.243Z,2.58
2022-10-17T07:45:11.411Z,2.50
2022-10-17T07:47:38.036Z,2.30
2022-10-17T07:50:07.836Z,2.65
2022-10-17T07:52:34.636Z,2.53
2022-10-17T07:55:01.010Z,2.80
2022-10-17T07:57:27.494Z,2.75
2022-10-17T07:59:54.617Z,2.55
2022-10-17T08:02:24.512Z,2.60
2022-10-17T08:04:54.222Z,2.70
2022-10-17T08:07:24.368Z,2.50
2022-10-17T08:09:54.956Z,3.13
2022-10-17T08:12:22.004Z,3.25
2022-10-17T08:14:48.343Z,2.33
2022-10-17T08:17:14.877Z,2.80
2022-10-17T08:19:41.522Z,2.75
2022-10-17T08:22:08.164Z,2.50
2022-10-17T08:24:34.690Z,2.80
2022-10-17T08:27:01.338Z,2.88
2022-10-17T08:29:27.943Z,2.75
2022-10-17T08:31:58.669Z,2.53
2022-10-17T08:34:28.075Z,3.25
2022-10-17T08:36:54.644Z,2.70
2022-10-17T08:39:21.160Z,2.47
2022-10-17T08:41:56.834Z,2.58
2022-10-17T08:44:54.239Z,2.25
2022-10-17T08:47:29.423Z,2.70
2022-10-17T08:50:00.653Z,2.35
2022-10-17T08:52:38.437Z,2.50
2022-10-17T08:55:14.709Z,2.92
2022-10-17T08:57:41.212Z,2.75
2022-10-17T09:00:16.846Z,2.97
2022-10-17T09:03:06.858Z,2.88
2022-10-17T09:05:51.206Z,2.67
2022-10-17T09:08:29.902Z,2.65
2022-10-17T09:11:35.301Z,2.70
2022-10-17T09:14:08.418Z,2.38
2022-10-17T09:17:02.722Z,2.90
2022-10-17T09:19:34.407Z,2.60
2022-10-17T09:22:03.056Z,2.80
2022-10-17T09:24:46.318Z,2.45
2022-10-17T09:27:22.866Z,2.88
2022-10-17T09:29:54.595Z,3.35
2022-10-17T09:32:25.553Z,2.75
2022-10-17T09:34:53.683Z,2.40
2022-10-17T09:37:25.420Z,3.47
2022-10-17T09:39:52.223Z,2.80
2022-10-17T09:42:21.595Z,2.83
2022-10-17T09:45:19.318Z,3.05
2022-10-17T09:47:53.815Z,3.15
2022-10-17T09:50:28.082Z,2.70
2022-10-17T09:52:56.726Z,3.20
2022-10-17T09:55:42.820Z,2.92
2022-10-17T09:58:10.885Z,2.85
2022-10-17T10:00:41.447Z,2.90
2022-10-17T10:03:23.479Z,2.58
2022-10-17T10:06:01.836Z,3.10
2022-10-17T10:08:34.444Z,2.58
2022-10-17T10:11:13.380Z,3.08
2022-10-17T10:13:40.292Z,2.72
2022-10-17T10:16:20.142Z,2.70
2022-10-17T10:18:50.134Z,2.70
2022-10-17T10:21:20.987Z,2.53
2022-10-17T10:23:59.555Z,2.80
2022-10-17T10:26:44.992Z,3.05
2022-10-17T10:29:23.477Z,2.58
2022-10-17T10:31:51.328Z,2.40
2022-10-17T10:34:31.332Z,3.00
2022-10-17T10:37:01.994Z,2.53
2022-10-17T10:39:33.719Z,2.83
2022-10-17T10:42:02.526Z,3.05
2022-10-17T10:44:31.365Z,3.08
2022-10-17T10:47:30.417Z,2.50
2022-10-17T10:50:24.068Z,2.53
2022-10-17T10:52:56.325Z,2.58
2022-10-17T10:55:34.356Z,2.83
2022-10-17T10:58:06.439Z,3.00
2022-10-17T11:00:34.871Z,3.08
2022-10-17T11:03:18.661Z,2.97
2022-10-17T11:05:51.200Z,3.00
2022-10-17T11:08:32.784Z,2.70
2022-10-17T11:10:59.172Z,2.97
2022-10-17T11:13:31.852Z,3.17
2022-10-17T11:16:39.911Z,3.22
2022-10-17T11:19:25.101Z,3.15
2022-10-17T11:22:26.654Z,2.90
2022-10-17T11:25:04.760Z,3.22
2022-10-17T11:27:33.789Z,3.60
2022-10-17T11:30:00.380Z,3.50
2022-10-17T11:32:34.792Z,3.38
2022-10-17T11:35:14.758Z,3.53
2022-10-17T11:37:48.478Z,4.43
2022-10-17T11:40:23.612Z,3.30
2022-10-17T11:43:01.448Z,3.72
2022-10-17T11:45:35.009Z,4.30
2022-10-17T11:48:17.408Z,4.28
2022-10-17T11:53:50.876Z,3.60
2022-10-17T11:56:26.440Z,3.75
2022-10-17T11:59:07.722Z,3.65
2022-10-17T12:01:58.519Z,4.18
2022-10-17T12:05:01.652Z,3.85
2022-10-17T12:08:02.093Z,4.95
2022-10-17T12:10:45.635Z,4.10
2022-10-17T12:13:33.683Z,4.70
2022-10-17T12:16:37.513Z,4.57
2022-10-17T12:19:06.262Z,5.32
2022-10-17T12:21:55.519Z,5.07
2022-10-17T12:24:34.268Z,4.53
2022-10-17T12:27:28.998Z,4.18
2022-10-17T12:30:01.686Z,4.00
2022-10-17T12:32:36.755Z,3.53
2022-10-17T12:35:20.574Z,4.38
2022-10-17T12:37:55.230Z,4.60
2022-10-17T12:40:35.653Z,4.38
2022-10-17T12:43:28.223Z,4.63
2022-10-17T12:45:55.804Z,5.10
2022-10-17T12:48:34.496Z,4.57
2022-10-17T12:51:35.675Z,4.32
2022-10-17T12:54:14.918Z,4.72
2022-10-17T12:56:46.557Z,5.15
2022-10-17T12:59:25.852Z,5.10
2022-10-17T13:01:58.977Z,5.30
2022-10-17T13:04:27.525Z,4.75
2022-10-17T13:06:59.037Z,4.82
2022-10-17T13:09:33.202Z,4.82
2022-10-17T13:12:03.063Z,4.78
2022-10-17T13:14:31.531Z,5.65
2022-10-17T13:17:03.931Z,5.38
2022-10-17T13:19:40.005Z,5.07
2022-10-17T13:22:22.453Z,6.50
2022-10-17T13:24:50.843Z,6.60
2022-10-17T13:27:23.456Z,7.30
2022-10-17T13:29:50.002Z,8.10
2022-10-17T13:32:16.797Z,7.68
2022-10-17T13:34:43.356Z,8.27
2022-10-17T13:37:15.751Z,7.93
2022-10-17T13:39:55.223Z,8.48
2022-10-17T13:42:37.213Z,8.35
2022-10-17T13:45:04.236Z,8.15
2022-10-17T13:47:36.571Z,8.43
2022-10-17T13:50:09.431Z,9.38
2022-10-17T13:52:43.188Z,9.45
2022-10-17T13:55:17.458Z,9.23
2022-10-17T13:57:44.364Z,9.65
2022-10-17T14:00:21.645Z,9.15
2022-10-17T14:02:48.431Z,9.77
2022-10-17T14:05:20.321Z,9.35
2022-10-17T14:08:22.064Z,9.55
2022-10-17T14:10:49.183Z,10.30
2022-10-17T14:13:22.758Z,8.98
2022-10-17T14:15:50.225Z,9.52
2022-10-17T14:18:47.407Z,9.13
2022-10-17T14:21:40.476Z,9.25
2022-10-17T14:24:23.533Z,9.95
2022-10-17T14:26:52.623Z,9.95
2022-10-17T14:29:31.821Z,8.80
2022-10-17T14:32:02.032Z,10.05
2022-10-17T14:34:35.741Z,8.80
2022-10-17T14:37:08.450Z,9.20
2022-10-17T14:39:35.014Z,9.38
2022-10-17T14:42:04.444Z,9.70
2022-10-17T14:44:34.950Z,9.27
2022-10-17T14:47:30.393Z,9.85
2022-10-17T14:50:02.531Z,9.45
2022-10-17T14:52:30.617Z,9.55
2022-10-17T14:54:58.858Z,9.73
2022-10-17T14:57:29.332Z,9.48
2022-10-17T14:59:57.211Z,9.95
2022-10-17T15:02:29.247Z,10.25
2022-10-17T15:04:55.938Z,9.73
2022-10-17T15:07:23.669Z,10.07
2022-10-17T15:09:51.608Z,8.77
2022-10-17T15:12:25.615Z,10.35
2022-10-17T15:14:53.414Z,9.43
2022-10-17T15:17:33.008Z,9.85
2022-10-17T15:19:59.388Z,10.30
2022-10-17T15:22:26.681Z,9.98
2022-10-17T15:24:53.177Z,8.95
2022-10-17T15:27:22.979Z,9.63
2022-10-17T15:29:51.389Z,10.38
2022-10-17T15:32:17.748Z,10.20
2022-10-17T15:34:44.428Z,10.32
2022-10-17T15:37:18.685Z,10.23
2022-10-17T15:39:52.808Z,10.15
2022-10-17T15:42:20.336Z,10.75
2022-10-17T15:44:49.718Z,10.60
2022-10-17T15:47:34.133Z,11.05
2022-10-17T15:50:01.983Z,9.45
2022-10-17T15:52:28.561Z,10.70
2022-10-17T15:54:56.468Z,10.30
2022-10-17T15:57:28.678Z,9.98
2022-10-17T15:59:57.223Z,9.68
2022-10-17T16:02:24.089Z,9.32
2022-10-17T16:04:51.549Z,7.78
2022-10-17T16:07:21.732Z,8.07
2022-10-17T16:09:48.209Z,8.60
2022-10-17T16:14:49.748Z,8.20
2022-10-17T16:17:17.051Z,8.48
2022-10-17T16:19:43.533Z,7.80
2022-10-17T16:22:21.023Z,7.18
2022-10-17T16:24:47.375Z,7.90
2022-10-17T16:27:13.887Z,9.15
2022-10-17T16:29:40.359Z,9.02
2022-10-17T16:32:06.781Z,9.77
2022-10-17T16:34:35.948Z,8.50
2022-10-17T16:37:02.355Z,12.07
2022-10-17T16:39:28.746Z,11.15
2022-10-17T16:41:57.786Z,11.02
2022-10-17T16:44:25.291Z,10.60
2022-10-17T16:46:51.649Z,10.80
2022-10-17T16:49:18.244Z,12.35
2022-10-17T16:51:44.675Z,11.35
2022-10-17T16:54:11.211Z,11.50
2022-10-17T16:56:37.683Z,10.82
2022-10-17T16:59:10.534Z,10.35
2022-10-17T17:01:40.716Z,10.98
2022-10-17T17:04:10.256Z,10.63
2022-10-17T17:06:38.892Z,9.93
2022-10-17T17:09:09.693Z,10.18
2022-10-17T17:11:37.450Z,9.50
2022-10-17T17:14:05.157Z,10.20
2022-10-17T17:16:33.493Z,10.50
2022-10-17T17:19:05.635Z,10.82
2022-10-17T17:21:33.342Z,10.98
2022-10-17T17:24:01.497Z,11.95
2022-10-17T17:26:31.806Z,11.60
2022-10-17T17:29:00.420Z,11.57
2022-10-17T17:31:33.085Z,12.35
2022-10-17T17:34:00.279Z,12.88
2022-10-17T17:36:33.077Z,12.20
2022-10-17T17:39:01.418Z,13.90
2022-10-17T17:41:28.754Z,14.18
2022-10-17T17:44:12.461Z,13.95
2022-10-17T17:46:43.500Z,14.57
2022-10-17T17:49:12.629Z,14.70
2022-10-17T17:51:41.378Z,13.82
2022-10-17T17:54:11.620Z,15.90
2022-10-17T17:56:38.658Z,15.52
2022-10-17T17:59:05.624Z,15.85
2022-10-17T18:01:38.208Z,15.55
2022-10-17T18:04:08.566Z,14.50
2022-10-17T18:06:38.020Z,15.88
2022-10-17T18:09:06.012Z,16.02
2022-10-17T18:11:32.820Z,17.75
2022-10-17T18:14:03.983Z,15.55
2022-10-17T18:16:33.849Z,16.83
2022-10-17T18:19:08.138Z,15.75
2022-10-17T18:21:36.275Z,17.27
2022-10-17T18:24:07.555Z,17.55
2022-10-17T18:26:34.557Z,16.42
2022-10-17T18:29:01.549Z,15.90
2022-10-17T18:31:35.473Z,17.73
2022-10-17T18:34:03.251Z,16.63
2022-10-17T18:36:30.861Z,15.77
2022-10-17T18:38:58.867Z,17.50
2022-10-17T18:41:27.040Z,16.52
2022-10-17T18:43:56.823Z,17.60
2022-10-17T18:46:32.435Z,15.98
2022-10-17T18:48:58.926Z,16.65
2022-10-17T18:51:25.865Z,16.75
2022-10-17T18:53:54.757Z,16.98
2022-10-17T18:56:22.542Z,16.08
2022-10-17T18:58:48.966Z,16.70
2022-10-17T19:01:21.506Z,16.63
2022-10-17T19:03:49.981Z,16.88
2022-10-17T19:06:18.702Z,16.50
2022-10-17T19:08:45.581Z,17.20
2022-10-17T19:11:15.049Z,15.38
2022-10-17T19:13:42.336Z,16.40
2022-10-17T19:16:11.611Z,17.40
2022-10-17T19:18:38.145Z,15.93
2022-10-17T19:21:07.180Z,16.00
2022-10-17T19:23:35.956Z,16.95
2022-10-17T19:26:08.163Z,15.95
2022-10-17T19:28:36.006Z,16.33
2022-10-17T19:31:02.845Z,14.88
2022-10-17T19:33:30.887Z,13.27
2022-10-17T19:36:03.200Z,12.23
2022-10-17T19:38:29.696Z,11.63
2022-10-17T19:40:56.185Z,9.52
2022-10-17T19:43:22.974Z,8.02
2022-10-17T19:45:57.767Z,7.70
2022-10-17T19:48:33.464Z,7.55
2022-10-17T19:51:00.095Z,7.10
2022-10-17T19:53:29.620Z,7.15
2022-10-17T19:55:57.727Z,5.97
2022-10-17T19:58:25.827Z,5.97
2022-10-17T20:01:03.084Z,5.43
2022-10-17T20:03:29.679Z,4.40
2022-10-17T20:05:56.107Z,4.72
2022-10-17T20:08:22.704Z,4.35
2022-10-17T20:10:55.231Z,4.03
2022-10-17T20:13:21.676Z,3.83
2022-10-17T20:15:58.212Z,4.25
2022-10-17T20:18:25.686Z,3.97
2022-10-17T20:20:52.399Z,3.65
2022-10-17T20:23:18.839Z,3.60
2022-10-17T20:25:45.500Z,3.42
2022-10-17T20:28:11.871Z,3.20
2022-10-17T20:30:44.676Z,2.60
2022-10-17T20:33:14.127Z,2.53
2022-10-17T20:35:41.946Z,2.88
2022-10-17T20:38:08.762Z,2.50
2022-10-17T20:40:35.812Z,3.10
2022-10-17T20:43:07.076Z,2.85
2022-10-17T20:45:50.629Z,2.83
2022-10-17T20:48:18.071Z,2.88
2022-10-17T20:50:44.473Z,2.75
2022-10-17T20:53:35.521Z,3.20
2022-10-17T20:56:12.676Z,2.70
2022-10-17T20:58:39.433Z,2.50
2022-10-17T21:01:07.753Z,2.88
2022-10-17T21:03:37.829Z,2.80
2022-10-17T21:06:08.713Z,3.22
2022-10-17T21:08:35.499Z,3.13
2022-10-17T21:11:10.368Z,3.35
2022-10-17T21:13:37.353Z,3.30
2022-10-17T21:16:05.848Z,2.53
2022-10-17T21:18:32.206Z,3.20
2022-10-17T21:21:14.461Z,3.10
2022-10-17T21:23:42.785Z,2.88
2022-10-17T21:26:10.265Z,3.22
2022-10-17T21:28:37.355Z,3.15
2022-10-17T21:31:25.983Z,3.35
2022-10-17T21:33:55.673Z,3.28
2022-10-17T21:36:24.262Z,3.30
2022-10-17T21:38:52.256Z,3.08
2022-10-17T21:41:20.291Z,2.72
2022-10-17T21:43:55.371Z,2.90
2022-10-17T21:46:22.311Z,2.72
2022-10-17T21:48:49.395Z,2.97
2022-10-17T21:51:18.958Z,2.97
2022-10-17T21:53:45.602Z,3.50
2022-10-17T21:56:15.315Z,3.58
2022-10-17T21:58:43.333Z,4.47
2022-10-17T22:01:17.100Z,4.15
2022-10-17T22:03:46.848Z,4.95
2022-10-17T22:09:14.176Z,5.47
2022-10-17T22:11:41.160Z,5.38
2022-10-17T22:14:12.035Z,6.00
2022-10-17T22:16:38.627Z,5.90
2022-10-17T22:19:06.718Z,5.78
2022-10-17T22:21:35.493Z,6.90
2022-10-17T22:24:05.833Z,6.70
2022-10-17T22:26:34.287Z,6.30
2022-10-17T22:29:02.223Z,7.05
2022-10-17T22:31:28.655Z,7.60
2022-10-17T22:33:55.874Z,6.72
2022-10-17T22:36:22.664Z,7.63
2022-10-17T22:38:49.131Z,7.53
2022-10-17T22:41:15.609Z,7.75
2022-10-17T22:43:42.065Z,7.22
2022-10-17T22:46:09.849Z,6.95
2022-10-17T22:48:36.779Z,7.55
2022-10-17T22:51:03.317Z,8.27
2022-10-17T22:53:29.940Z,7.60
2022-10-17T22:56:00.053Z,7.80
2022-10-17T22:58:28.217Z,8.30
2022-10-17T23:00:55.066Z,8.68
2022-10-17T23:03:23.282Z,8.35
2022-10-17T23:05:51.347Z,8.10
2022-10-17T23:08:18.438Z,7.43
2022-10-17T23:10:45.899Z,9.13
2022-10-17T23:13:13.029Z,7.85
2022-10-17T23:15:39.431Z,7.88
2022-10-17T23:18:06.076Z,7.85
2022-10-17T23:20:32.710Z,7.78
2022-10-17T23:22:59.342Z,7.65
2022-10-17T23:25:25.984Z,8.20
2022-10-17T23:27:52.526Z,8.82
2022-10-17T23:30:19.015Z,8.57
2022-10-17T23:32:45.368Z,8.27
2022-10-17T23:35:12.246Z,8.38
2022-10-17T23:37:38.580Z,8.02
2022-10-17T23:40:06.132Z,8.50
2022-10-17T23:42:32.562Z,8.48
2022-10-17T23:44:59.012Z,8.23
2022-10-17T23:47:25.358Z,8.60
2022-10-17T23:49:51.873Z,8.95
2022-10-17T23:52:18.399Z,9.48
2022-10-17T23:54:44.884Z,8.93
2022-10-17T23:57:11.312Z,9.68
2022-10-17T23:59:37.666Z,8.60
